Time;durP1;ratioP1;P1;durP2;ratioP2;P2;SDS_P1;SDS_P2;PMS_P1;PMS_P2;Temp;Humidity;BMP_temperature;BMP_pressure;BME280_temperature;BME280_humidity;BME280_pressure;Samples;Min_cycle;Max_cycle;Signal;HPM_P1;HPM_P2
2024/04/08 00:01:30;;;;;;;1.25;0.60;;;;;;;22.51;47.52;100164.44;4492587;28;20113;-54
2024/04/08 00:03:41;;;;;;;1.15;0.70;;;;;;;22.51;47.53;100166.47;4492875;28;20550;-54
2024/04/08 00:05:56;;;;;;;0.80;0.80;;;;;;;22.50;47.13;100170.56;4492045;28;20092;-52
2024/04/08 00:08:06;;;;;;;0.57;0.52;;;;;;;22.50;47.08;100177.13;4492907;28;20038;-52
2024/04/08 00:10:17;;;;;;;0.65;0.60;;;;;;;22.50;47.30;100173.44;4492682;28;20042;-54
2024/04/08 00:12:27;;;;;;;1.15;0.60;;;;;;;22.50;47.62;100185.75;4492896;28;20034;-53
2024/04/08 00:14:38;;;;;;;0.82;0.75;;;;;;;22.50;47.59;100182.09;4492070;28;20638;-54
2024/04/08 00:16:48;;;;;;;0.63;0.55;;;;;;;22.50;47.77;100187.84;4492721;28;20030;-52
2024/04/08 00:18:59;;;;;;;1.00;0.50;;;;;;;22.50;47.55;100205.09;4492717;28;20031;-55
2024/04/08 00:21:10;;;;;;;0.73;0.65;;;;;;;22.49;47.51;100197.66;4492427;28;20034;-53
2024/04/08 00:23:20;;;;;;;1.15;0.70;;;;;;;22.49;47.83;100210.00;4492451;28;20031;-54
2024/04/08 00:25:32;;;;;;;0.93;0.60;;;;;;;22.49;47.83;100218.63;4492642;28;20048;-55
2024/04/08 00:27:43;;;;;;;1.42;0.70;;;;;;;22.50;47.61;100222.34;4492319;28;20053;-52
2024/04/08 00:29:53;;;;;;;0.95;0.50;;;;;;;22.51;48.00;100215.38;4492668;28;20039;-52
2024/04/08 00:32:04;;;;;;;1.05;0.52;;;;;;;22.50;48.11;100210.84;4492521;28;20399;-53
2024/04/08 00:34:14;;;;;;;0.70;0.60;;;;;;;22.49;47.75;100204.25;4474205;28;20050;-53
2024/04/08 00:36:25;;;;;;;1.20;0.80;;;;;;;22.49;47.82;100197.66;4491799;28;20556;-53
2024/04/08 00:38:35;;;;;;;0.98;0.60;;;;;;;22.49;48.07;100197.66;4492589;28;20038;-56
2024/04/08 00:40:46;;;;;;;0.90;0.60;;;;;;;22.48;48.13;100202.59;4492034;28;20031;-54
2024/04/08 00:42:56;;;;;;;0.85;0.60;;;;;;;22.48;48.14;100196.00;4492374;28;20035;-53
2024/04/08 00:45:07;;;;;;;1.00;0.60;;;;;;;22.50;48.37;100202.22;4474449;28;20058;-53
2024/04/08 00:47:17;;;;;;;1.23;0.70;;;;;;;22.50;48.53;100219.47;4492150;28;20498;-52
2024/04/08 00:49:29;;;;;;;0.93;0.63;;;;;;;22.48;48.21;100214.09;4474569;28;20074;-54
2024/04/08 00:51:44;;;;;;;0.90;0.65;;;;;;;22.49;48.45;100220.66;4492114;28;20100;-54
2024/04/08 00:53:55;;;;;;;0.90;0.50;;;;;;;22.48;48.30;100219.03;4491724;28;20133;-54
2024/04/08 00:56:05;;;;;;;0.77;0.52;;;;;;;22.48;47.81;100230.53;4491743;28;20038;-52
2024/04/08 00:58:17;;;;;;;1.33;0.65;;;;;;;22.48;47.90;100236.28;4490862;28;20033;-56
2024/04/08 01:00:27;;;;;;;1.02;0.60;;;;;;;22.48;47.88;100230.53;4492257;28;20039;-53
2024/04/08 01:02:38;;;;;;;0.75;0.50;;;;;;;22.47;48.16;100240.38;4491582;28;20387;-54
2024/04/08 01:04:50;;;;;;;0.50;0.50;;;;;;;22.48;47.80;100233.41;4491734;28;20137;-54
2024/04/08 01:07:01;;;;;;;1.17;0.60;;;;;;;22.47;48.05;100243.25;4490004;28;20092;-54
2024/04/08 01:09:12;;;;;;;1.10;0.68;;;;;;;22.47;48.11;100235.44;4476153;28;20718;-56
2024/04/08 01:11:22;;;;;;;1.33;0.70;;;;;;;22.47;48.46;100238.31;4492002;28;20042;-53
2024/04/08 01:13:33;;;;;;;0.82;0.63;;;;;;;22.46;48.45;100239.53;4492031;28;20026;-52
2024/04/08 01:15:43;;;;;;;0.95;0.70;;;;;;;22.47;48.30;100243.25;4491785;28;20045;-55
2024/04/08 01:17:55;;;;;;;1.30;0.70;;;;;;;22.47;48.63;100243.25;4491722;28;20041;-52
2024/04/08 01:20:06;;;;;;;1.48;0.70;;;;;;;22.47;48.60;100246.13;4491857;28;20039;-56
2024/04/08 01:22:16;;;;;;;0.70;0.60;;;;;;;22.47;49.06;100237.50;4492034;28;20034;-52
2024/04/08 01:24:26;;;;;;;2.08;0.73;;;;;;;22.46;48.85;100227.19;4491889;28;20077;-52
2024/04/08 01:26:38;;;;;;;2.00;0.80;;;;;;;22.47;49.24;100208.75;4491577;28;20581;-53
2024/04/08 01:28:50;;;;;;;1.83;0.80;;;;;;;22.46;49.32;100181.19;4491770;28;20066;-53
2024/04/08 01:31:00;;;;;;;0.90;0.70;;;;;;;22.46;49.12;100170.53;4491866;28;20069;-53
2024/04/08 01:33:11;;;;;;;0.65;0.63;;;;;;;22.45;48.61;100145.03;4491647;28;20073;-52
2024/04/08 01:35:21;;;;;;;1.02;0.70;;;;;;;22.46;48.77;100181.19;4491460;28;20018;-53
2024/04/08 01:37:31;;;;;;;2.45;0.80;;;;;;;22.45;48.74;100179.53;4491753;28;20042;-56
2024/04/08 01:39:42;;;;;;;1.05;0.70;;;;;;;22.45;48.58;100168.03;4491721;28;20125;-53
2024/04/08 01:41:52;;;;;;;1.23;0.70;;;;;;;22.45;48.56;100165.16;4491167;28;23400;-55
2024/04/08 01:44:03;;;;;;;1.67;0.98;;;;;;;22.44;48.46;100149.94;4473162;28;20130;-56
2024/04/08 01:46:13;;;;;;;1.35;0.82;;;;;;;22.44;48.83;100147.06;4491110;28;20096;-56
2024/04/08 01:48:23;;;;;;;2.00;0.73;;;;;;;22.45;48.72;100145.03;4491384;28;20545;-52
2024/04/08 01:50:34;;;;;;;1.00;0.68;;;;;;;22.44;48.24;100149.13;4473079;28;20109;-53
2024/04/08 01:52:44;;;;;;;1.55;0.75;;;;;;;22.43;48.51;100156.94;4491575;28;20034;-53
2024/04/08 01:54:54;;;;;;;1.50;0.90;;;;;;;22.44;48.56;100160.63;4490852;28;20128;-52
2024/04/08 01:57:05;;;;;;;1.25;0.82;;;;;;;22.44;48.61;100160.63;4491317;28;20022;-53
2024/04/08 01:59:15;;;;;;;1.13;0.77;;;;;;;22.43;49.02;100171.31;4491341;28;20554;-54
2024/04/08 02:01:26;;;;;;;1.17;0.75;;;;;;;22.43;49.01;100177.06;4490879;28;20479;-53
2024/04/08 02:03:36;;;;;;;1.75;0.70;;;;;;;22.43;48.56;100165.56;4491360;28;20150;-53
2024/04/08 02:05:47;;;;;;;0.80;0.80;;;;;;;22.43;49.12;100148.31;4491172;28;20871;-53
2024/04/08 02:07:57;;;;;;;0.90;0.70;;;;;;;22.43;49.31;100161.84;4491088;28;20610;-53
2024/04/08 02:10:07;;;;;;;1.38;0.77;;;;;;;22.43;49.22;100185.69;4491203;28;20026;-54
2024/04/08 02:12:18;;;;;;;1.27;0.77;;;;;;;22.42;48.89;100201.25;4491139;28;20041;-57
2024/04/08 02:14:28;;;;;;;1.10;0.80;;;;;;;22.43;48.67;100217.31;4491144;28;20479;-55
2024/04/08 02:16:39;;;;;;;1.52;0.80;;;;;;;22.42;48.66;100203.34;4489572;28;25943;-55
2024/04/08 02:18:50;;;;;;;0.65;0.65;;;;;;;22.42;48.76;100200.44;4491181;28;20486;-55
2024/04/08 02:21:01;;;;;;;0.90;0.80;;;;;;;22.41;48.66;100187.28;4491025;28;20074;-54
2024/04/08 02:23:12;;;;;;;1.55;0.75;;;;;;;22.41;48.79;100196.75;4490657;28;20117;-53
2024/04/08 02:25:22;;;;;;;1.30;0.90;;;;;;;22.41;48.98;100185.25;4490946;28;20147;-53
2024/04/08 02:27:33;;;;;;;1.00;0.80;;;;;;;22.41;48.58;100167.16;4490386;28;20045;-54
2024/04/08 02:29:43;;;;;;;1.52;0.90;;;;;;;22.41;48.51;100167.97;4490830;28;22335;-52
2024/04/08 02:31:54;;;;;;;2.40;1.02;;;;;;;22.41;48.59;100187.28;4490941;28;20041;-55
2024/04/08 02:34:04;;;;;;;1.65;0.90;;;;;;;22.41;48.64;100193.88;4490881;28;20043;-52
2024/04/08 02:36:15;;;;;;;2.05;0.90;;;;;;;22.41;48.47;100196.75;4490045;28;23588;-53
2024/04/08 02:38:25;;;;;;;1.77;0.85;;;;;;;22.40;48.79;100195.09;4490772;28;20045;-52
2024/04/08 02:40:36;;;;;;;1.33;0.90;;;;;;;22.39;48.59;100190.53;4490694;28;24671;-56
2024/04/08 02:42:46;;;;;;;1.35;0.82;;;;;;;22.41;48.61;100198.78;4490885;28;20373;-52
2024/04/08 02:44:57;;;;;;;2.05;1.00;;;;;;;22.40;48.69;100177.84;4490372;28;20042;-54
2024/04/08 02:47:07;;;;;;;1.52;1.10;;;;;;;22.40;48.53;100165.50;4490702;28;20042;-56
2024/04/08 02:49:17;;;;;;;1.17;0.80;;;;;;;22.39;48.34;100161.78;4490556;28;20038;-54
2024/04/08 02:51:28;;;;;;;1.38;0.90;;;;;;;22.41;48.51;100167.16;4490453;28;20038;-54
2024/04/08 02:53:38;;;;;;;1.02;0.90;;;;;;;22.40;48.44;100166.34;4490466;28;20092;-56
2024/04/08 02:55:57;;;;;;;1.67;0.90;;;;;;;22.39;48.26;100158.09;4471727;28;24776;-53
2024/04/08 02:58:07;;;;;;;1.13;0.90;;;;;;;22.39;48.45;100140.84;4490680;28;20034;-53
2024/04/08 03:00:18;;;;;;;1.25;0.93;;;;;;;22.38;48.37;100137.13;4490477;28;20030;-55
2024/04/08 03:02:28;;;;;;;1.27;0.95;;;;;;;22.39;48.17;100143.72;4490511;28;20122;-57
2024/04/08 03:04:39;;;;;;;1.45;1.10;;;;;;;22.39;48.19;100147.41;4489953;28;20141;-55
2024/04/08 03:06:49;;;;;;;1.33;0.90;;;;;;;22.38;48.25;100139.16;4489531;28;20113;-54
2024/04/08 03:09:00;;;;;;;0.82;0.82;;;;;;;22.37;48.28;100144.13;4490517;28;20052;-54
2024/04/08 03:11:10;;;;;;;1.45;0.90;;;;;;;22.37;48.31;100158.50;4472584;28;20121;-53
2024/04/08 03:13:21;;;;;;;1.65;1.10;;;;;;;22.39;48.42;100152.34;4471745;28;20415;-53
2024/04/08 03:15:31;;;;;;;1.58;0.80;;;;;;;22.39;48.14;100152.34;4490255;28;20039;-56
2024/04/08 03:17:42;;;;;;;2.30;1.00;;;;;;;22.38;48.21;100150.66;4490261;28;20037;-55
2024/04/08 03:19:53;;;;;;;0.70;0.70;;;;;;;22.37;48.27;100137.53;4472049;28;20031;-53
2024/04/08 03:22:04;;;;;;;2.10;0.90;;;;;;;22.38;48.10;100136.28;4490085;28;20566;-53
2024/04/08 03:24:14;;;;;;;1.55;1.00;;;;;;;22.38;48.51;100144.91;4490388;28;20429;-53
2024/04/08 03:26:25;;;;;;;1.30;1.20;;;;;;;22.36;48.04;100136.69;4489115;28;20415;-55
2024/04/08 03:28:35;;;;;;;1.83;1.10;;;;;;;22.37;48.04;100143.28;4489035;28;22505;-55
2024/04/08 03:30:45;;;;;;;1.48;0.90;;;;;;;22.37;48.35;100140.41;4489795;28;20525;-56
2024/04/08 03:32:56;;;;;;;1.40;0.90;;;;;;;22.36;48.08;100141.63;4490114;28;20174;-56
2024/04/08 03:35:06;;;;;;;1.17;1.00;;;;;;;22.37;48.44;100131.78;4489990;28;20066;-57
2024/04/08 03:37:16;;;;;;;1.42;0.90;;;;;;;22.36;48.31;100130.13;4489745;28;20346;-55
2024/04/08 03:39:27;;;;;;;2.05;0.90;;;;;;;22.36;48.40;100127.25;4489800;28;20118;-57
2024/04/08 03:41:37;;;;;;;1.60;0.90;;;;;;;22.36;48.45;100124.38;4490175;28;20038;-57
2024/04/08 03:43:49;;;;;;;1.55;0.90;;;;;;;22.34;48.26;100121.06;4472082;28;20043;-57
2024/04/08 03:46:00;;;;;;;2.65;1.05;;;;;;;22.36;48.09;100130.13;4489488;28;20038;-57
2024/04/08 03:48:11;;;;;;;1.33;1.10;;;;;;;22.35;47.94;100122.69;4490295;28;20032;-54
2024/04/08 03:50:21;;;;;;;1.58;1.10;;;;;;;22.34;47.61;100121.06;4489736;28;20022;-56
2024/04/08 03:52:33;;;;;;;1.20;1.00;;;;;;;22.34;48.33;100124.78;4489181;28;21385;-56
2024/04/08 03:54:45;;;;;;;1.90;1.00;;;;;;;22.34;48.00;100119.03;4489518;28;20053;-56
2024/04/08 03:56:56;;;;;;;1.58;1.20;;;;;;;22.34;48.21;100112.44;4489873;28;20050;-57
2024/04/08 03:59:07;;;;;;;1.38;1.20;;;;;;;22.35;48.26;100096.81;4489824;28;20046;-55
2024/04/08 04:01:18;;;;;;;1.63;1.10;;;;;;;22.33;47.74;100079.13;4489661;28;20557;-57
2024/04/08 04:03:28;;;;;;;1.33;1.05;;;;;;;22.34;47.79;100075.06;4489624;28;20431;-56
2024/04/08 04:05:39;;;;;;;2.47;1.27;;;;;;;22.33;47.57;100051.22;4488971;28;20133;-56
2024/04/08 04:07:49;;;;;;;1.00;0.88;;;;;;;22.33;48.10;100045.47;4489496;28;20035;-57
2024/04/08 04:10:04;;;;;;;1.42;1.00;;;;;;;22.33;47.52;100036.00;4489386;28;20043;-56
2024/04/08 04:12:15;;;;;;;1.02;0.90;;;;;;;22.33;47.03;100024.50;4489363;28;20026;-55
2024/04/08 04:14:25;;;;;;;1.27;1.10;;;;;;;22.33;47.12;100015.88;4489346;28;21160;-56
2024/04/08 04:16:35;;;;;;;1.42;1.00;;;;;;;22.32;47.38;100020.81;4489446;28;20034;-56
2024/04/08 04:18:46;;;;;;;1.23;1.13;;;;;;;22.32;47.03;100017.94;4489321;28;20041;-57
2024/04/08 04:20:56;;;;;;;1.75;0.90;;;;;;;22.32;47.74;100031.47;4489542;28;20117;-56
2024/04/08 04:23:09;;;;;;;2.20;1.08;;;;;;;22.31;47.85;100052.84;4489518;28;20049;-56
2024/04/08 04:25:20;;;;;;;1.95;1.02;;;;;;;22.32;47.90;100060.22;4489051;28;20030;-56
2024/04/08 04:27:30;;;;;;;0.95;0.88;;;;;;;22.31;47.95;100058.59;4488850;28;20047;-56
2024/04/08 04:29:41;;;;;;;2.03;1.10;;;;;;;22.31;47.67;100047.91;4489606;28;20037;-54
2024/04/08 04:31:51;;;;;;;1.23;0.90;;;;;;;22.32;47.43;100037.22;4489231;28;20078;-56
2024/04/08 04:34:02;;;;;;;1.27;1.05;;;;;;;22.32;47.66;100031.47;4489246;28;20026;-57
2024/04/08 04:36:12;;;;;;;1.73;1.00;;;;;;;22.31;47.15;100018.34;4489239;28;20117;-56
2024/04/08 04:38:24;;;;;;;1.67;1.20;;;;;;;22.30;47.29;100029.00;4473433;28;20150;-55
2024/04/08 04:40:34;;;;;;;1.40;1.10;;;;;;;22.30;47.12;100016.66;4490663;28;20049;-56
2024/04/08 04:42:45;;;;;;;1.00;0.90;;;;;;;22.30;46.76;100005.16;4492353;28;20101;-55
2024/04/08 04:44:56;;;;;;;0.98;0.90;;;;;;;22.30;47.00;100016.66;4492420;28;20105;-56
2024/04/08 04:47:06;;;;;;;1.45;1.10;;;;;;;22.29;46.88;100029.41;4492298;28;20093;-55
2024/04/08 04:49:17;;;;;;;1.33;1.10;;;;;;;22.29;46.76;100035.13;4492243;28;20089;-52
2024/04/08 04:51:27;;;;;;;1.10;1.00;;;;;;;22.30;46.46;100022.41;4492135;28;20081;-52
2024/04/08 04:53:38;;;;;;;1.52;0.90;;;;;;;22.29;46.42;100020.78;4491378;28;20077;-54
2024/04/08 04:55:53;;;;;;;1.25;1.00;;;;;;;22.28;46.77;100022.00;4491841;28;20042;-56
2024/04/08 04:58:03;;;;;;;0.95;0.85;;;;;;;22.28;46.47;99999.81;4491500;28;20070;-52
2024/04/08 05:00:14;;;;;;;1.05;0.93;;;;;;;22.28;46.24;100001.88;4492066;28;20121;-54
2024/04/08 05:02:24;;;;;;;1.55;1.00;;;;;;;22.28;46.62;100008.44;4492093;28;20042;-56
2024/04/08 05:04:35;;;;;;;1.30;1.00;;;;;;;22.28;45.93;100002.69;4491570;28;20112;-55
2024/04/08 05:06:45;;;;;;;1.23;0.82;;;;;;;22.27;46.15;100006.78;4491507;28;20093;-56
2024/04/08 05:08:57;;;;;;;1.58;1.10;;;;;;;22.27;45.89;100001.03;4491929;28;20033;-55
2024/04/08 05:11:07;;;;;;;1.50;1.10;;;;;;;22.27;46.05;100000.19;4491865;28;20045;-54
2024/04/08 05:13:18;;;;;;;1.00;0.90;;;;;;;22.27;45.86;99991.56;4491923;28;20502;-55
2024/04/08 05:15:28;;;;;;;1.55;1.00;;;;;;;22.27;45.67;99992.41;4491439;28;20464;-56
2024/04/08 05:17:39;;;;;;;1.23;1.00;;;;;;;22.26;45.51;100001.44;4491267;28;25383;-54
2024/04/08 05:19:49;;;;;;;1.13;1.02;;;;;;;22.26;45.96;100001.44;4491595;28;20609;-55
2024/04/08 05:22:00;;;;;;;1.42;0.95;;;;;;;22.26;45.62;100001.44;4491837;28;20038;-56
2024/04/08 05:24:10;;;;;;;2.35;1.10;;;;;;;22.26;45.76;100007.19;4491749;28;20538;-56
2024/04/08 05:26:21;;;;;;;0.90;0.90;;;;;;;22.25;45.31;100005.53;4473920;28;20411;-55
2024/04/08 05:28:31;;;;;;;1.63;1.00;;;;;;;22.26;45.54;100018.69;4491550;28;20046;-54
2024/04/08 05:30:41;;;;;;;1.30;1.00;;;;;;;22.26;45.45;100024.44;4491860;28;20507;-56
2024/04/08 05:32:52;;;;;;;1.10;0.90;;;;;;;22.26;45.62;100033.06;4491627;28;20118;-53
2024/04/08 05:35:02;;;;;;;1.27;1.02;;;;;;;22.26;45.67;100021.56;4491215;28;20117;-56
2024/04/08 05:37:13;;;;;;;1.17;1.00;;;;;;;22.25;45.61;100009.22;4491307;28;20603;-55
2024/04/08 05:39:23;;;;;;;1.88;1.00;;;;;;;22.26;46.28;100018.69;4491212;28;20041;-54
2024/04/08 05:41:34;;;;;;;1.90;1.10;;;;;;;22.25;46.15;100019.91;4491422;28;20026;-53
2024/04/08 05:43:44;;;;;;;2.75;1.45;;;;;;;22.24;46.72;100013.31;4491541;28;20045;-54
2024/04/08 05:45:54;;;;;;;1.75;1.30;;;;;;;22.23;46.54;100024.00;4490985;28;20054;-55
2024/04/08 05:48:05;;;;;;;2.00;1.23;;;;;;;22.23;46.83;100010.84;4491806;28;20581;-55
2024/04/08 05:50:16;;;;;;;1.92;1.40;;;;;;;22.23;46.47;100003.88;4491170;28;20042;-55
2024/04/08 05:52:27;;;;;;;1.73;1.20;;;;;;;22.23;46.82;100005.94;4490635;28;20117;-53
2024/04/08 05:54:37;;;;;;;1.23;1.13;;;;;;;22.23;46.74;100011.69;4490941;28;20030;-54
2024/04/08 05:56:47;;;;;;;1.23;1.00;;;;;;;22.23;46.93;100012.50;4491387;28;20038;-52
2024/04/08 05:58:58;;;;;;;2.08;1.05;;;;;;;22.23;47.19;99999.34;4491389;28;20023;-53
2024/04/08 06:01:08;;;;;;;1.48;1.00;;;;;;;22.24;47.32;100010.44;4473676;28;20082;-53
2024/04/08 06:03:19;;;;;;;1.20;1.10;;;;;;;22.23;47.37;100011.69;4491251;28;20089;-55
2024/04/08 06:05:29;;;;;;;1.55;1.00;;;;;;;22.23;47.06;100014.56;4490954;28;20042;-53
2024/04/08 06:07:40;;;;;;;1.65;1.30;;;;;;;22.21;47.37;100002.63;4472553;28;20073;-52
2024/04/08 06:09:51;;;;;;;2.65;1.48;;;;;;;22.20;47.35;100004.66;4491246;28;20066;-53
2024/04/08 06:12:01;;;;;;;1.63;1.20;;;;;;;22.20;47.48;100001.78;4490951;28;20034;-53
2024/04/08 06:14:12;;;;;;;1.23;1.00;;;;;;;22.20;47.55;100013.28;4491040;28;20034;-53
2024/04/08 06:16:22;;;;;;;1.30;1.20;;;;;;;22.20;47.93;100007.53;4490828;28;20431;-52
2024/04/08 06:18:32;;;;;;;0.68;0.68;;;;;;;22.20;49.96;100006.69;4490784;28;20569;-53
2024/04/08 06:20:43;;;;;;;1.20;0.70;;;;;;;22.21;50.31;100002.63;4490670;28;20038;-54
2024/04/08 06:22:54;;;;;;;0.63;0.60;;;;;;;22.20;51.74;100010.41;4490151;28;20551;-53
2024/04/08 06:25:06;;;;;;;0.60;0.60;;;;;;;22.21;51.65;100020.66;4490383;28;20128;-55
2024/04/08 06:27:16;;;;;;;0.40;0.35;;;;;;;22.21;52.05;100020.66;4490684;28;20042;-57
2024/04/08 06:29:27;;;;;;;0.50;0.50;;;;;;;22.20;52.50;100019.03;4490626;28;20038;-54
2024/04/08 06:31:37;;;;;;;1.10;0.50;;;;;;;22.21;52.58;100026.41;4490630;28;20121;-53
2024/04/08 06:33:48;;;;;;;0.95;0.60;;;;;;;22.23;52.50;100028.09;4472740;28;20117;-54
2024/04/08 06:35:58;;;;;;;1.02;0.70;;;;;;;22.22;52.85;100027.25;4490402;28;20032;-53
2024/04/08 06:38:08;;;;;;;0.88;0.60;;;;;;;22.23;52.51;100029.72;4490619;28;20034;-55
2024/04/08 06:40:19;;;;;;;0.82;0.57;;;;;;;22.21;52.26;100023.53;4490573;28;20038;-55
2024/04/08 06:42:29;;;;;;;1.83;0.80;;;;;;;22.21;52.54;100020.66;4490688;28;20041;-55
2024/04/08 06:44:39;;;;;;;0.82;0.70;;;;;;;22.21;52.62;100006.28;4490275;28;20037;-53
2024/04/08 06:46:50;;;;;;;1.20;0.70;;;;;;;22.21;51.10;100003.41;4490305;28;20030;-54
2024/04/08 06:49:00;;;;;;;1.00;0.65;;;;;;;22.23;52.34;100010.84;4490499;28;20035;-53
2024/04/08 06:51:11;;;;;;;1.02;0.77;;;;;;;22.23;51.93;100008.81;4472723;28;20047;-57
2024/04/08 06:53:22;;;;;;;0.88;0.70;;;;;;;22.23;52.23;100010.84;4490480;28;20548;-54
2024/04/08 06:55:32;;;;;;;1.45;0.65;;;;;;;22.21;51.13;100009.16;4490344;28;20042;-53
2024/04/08 06:57:43;;;;;;;2.15;0.90;;;;;;;22.22;51.16;100001.38;4490068;28;21915;-54
2024/04/08 06:59:53;;;;;;;1.10;0.70;;;;;;;22.22;51.43;100018.63;4490275;28;20046;-53
2024/04/08 07:02:04;;;;;;;1.20;0.98;;;;;;;22.21;50.63;100014.13;4489993;28;20038;-54
2024/04/08 07:04:17;;;;;;;1.48;0.98;;;;;;;22.21;50.06;100006.28;4489624;28;20035;-53
2024/04/08 07:06:27;;;;;;;0.80;0.80;;;;;;;22.20;50.63;100019.03;4489230;28;20042;-57
2024/04/08 07:08:38;;;;;;;0.90;0.75;;;;;;;22.22;50.88;100027.25;4490154;28;20105;-56
2024/04/08 07:10:48;;;;;;;1.13;0.95;;;;;;;22.22;51.14;100021.50;4489934;28;20979;-54
2024/04/08 07:12:58;;;;;;;1.77;0.80;;;;;;;22.21;50.82;100026.41;4489987;28;20042;-54
2024/04/08 07:15:09;;;;;;;1.02;0.80;;;;;;;22.22;50.89;100024.38;4489930;28;20085;-53
2024/04/08 07:17:20;;;;;;;1.00;0.70;;;;;;;22.21;51.02;100032.16;4490051;28;20109;-54
2024/04/08 07:19:30;;;;;;;1.48;0.80;;;;;;;22.21;50.08;100029.28;4489639;28;20574;-53
2024/04/08 07:21:40;;;;;;;1.27;0.80;;;;;;;22.23;51.13;100030.97;4490000;28;20042;-56
2024/04/08 07:23:53;;;;;;;1.25;0.80;;;;;;;22.22;50.81;100027.25;4490041;28;20022;-53
2024/04/08 07:26:03;;;;;;;0.82;0.80;;;;;;;22.23;51.59;100028.09;4489501;28;20534;-53
2024/04/08 07:28:14;;;;;;;1.02;0.70;;;;;;;22.21;51.80;100032.16;4489575;28;20022;-55
2024/04/08 07:30:24;;;;;;;1.90;0.85;;;;;;;22.20;51.68;100024.78;4489663;28;20053;-53
2024/04/08 07:32:34;;;;;;;1.00;0.85;;;;;;;22.21;51.36;100020.66;4490199;28;20038;-54
2024/04/08 07:34:47;;;;;;;1.10;0.90;;;;;;;22.20;50.55;100027.66;4489413;28;20399;-55
2024/04/08 07:36:58;;;;;;;1.15;0.73;;;;;;;22.21;51.74;100025.63;4489622;28;20101;-53
2024/04/08 07:39:09;;;;;;;1.10;0.90;;;;;;;22.21;51.04;100025.63;4489995;28;20423;-53
2024/04/08 07:41:19;;;;;;;1.23;0.90;;;;;;;22.23;51.52;100016.59;4489858;28;20565;-53
2024/04/08 07:43:30;;;;;;;1.10;1.00;;;;;;;22.21;50.86;100026.41;4469942;28;20035;-53
2024/04/08 07:45:40;;;;;;;1.75;0.98;;;;;;;22.21;50.20;100025.63;4488324;28;20042;-53
2024/04/08 07:47:51;;;;;;;2.20;1.00;;;;;;;22.20;49.65;100024.78;4489371;28;20116;-53
2024/04/08 07:50:05;;;;;;;1.38;0.90;;;;;;;22.21;49.60;100019.88;4489598;28;20387;-53
2024/04/08 07:52:15;;;;;;;1.10;0.98;;;;;;;22.21;48.97;100014.91;4489386;28;20046;-53
2024/04/08 07:54:25;;;;;;;1.05;0.95;;;;;;;22.21;48.93;100000.53;4489537;28;20034;-54
2024/04/08 07:56:36;;;;;;;1.38;1.00;;;;;;;22.19;49.67;99997.25;4488990;28;22660;-55
2024/04/08 07:58:46;;;;;;;1.15;0.90;;;;;;;22.23;49.92;100016.59;4489450;28;20039;-53
2024/04/08 08:01:00;;;;;;;2.38;1.00;;;;;;;22.23;50.85;100010.84;4489452;28;20022;-53
2024/04/08 08:03:10;;;;;;;2.05;1.17;;;;;;;22.23;50.58;100007.97;4489534;28;20030;-53
2024/04/08 08:05:21;;;;;;;1.55;0.90;;;;;;;22.23;50.28;99999.34;4471649;28;20042;-55
2024/04/08 08:07:31;;;;;;;1.40;0.90;;;;;;;22.23;50.16;100005.09;4471536;28;20103;-54
2024/04/08 08:09:41;;;;;;;1.98;1.13;;;;;;;22.23;50.13;100005.09;4489579;28;20034;-55
2024/04/08 08:11:52;;;;;;;2.65;1.10;;;;;;;22.23;50.93;100003.88;4489117;28;20962;-53
2024/04/08 08:14:02;;;;;;;1.83;1.00;;;;;;;22.23;50.16;100005.09;4488740;28;20503;-53
2024/04/08 08:16:13;;;;;;;1.30;1.05;;;;;;;22.22;50.47;99992.75;4491755;28;20549;-55
2024/04/08 08:18:23;;;;;;;2.03;1.40;;;;;;;22.23;50.04;99990.72;4492482;28;20030;-54
2024/04/08 08:20:33;;;;;;;1.13;1.00;;;;;;;22.22;50.01;99992.75;4492135;28;20046;-52
2024/04/08 08:22:44;;;;;;;3.00;1.15;;;;;;;22.23;50.44;99999.34;4492451;28;20046;-52
2024/04/08 08:24:54;;;;;;;1.85;1.02;;;;;;;22.21;50.75;100003.41;4492268;28;20042;-54
2024/04/08 08:27:04;;;;;;;1.52;0.93;;;;;;;22.22;50.58;100001.38;4492159;28;21131;-56
2024/04/08 08:29:15;;;;;;;2.00;0.98;;;;;;;22.22;50.73;100007.13;4492313;28;20038;-55
2024/04/08 08:31:25;;;;;;;1.40;1.00;;;;;;;22.22;51.16;100001.38;4492236;28;20038;-53
2024/04/08 08:33:36;;;;;;;1.80;1.20;;;;;;;22.23;50.95;100005.09;4491979;28;20101;-52
2024/04/08 08:35:46;;;;;;;1.98;1.02;;;;;;;22.22;51.20;99998.50;4492205;28;20126;-54
2024/04/08 08:37:57;;;;;;;2.38;1.00;;;;;;;22.22;50.66;99998.50;4492247;28;20043;-55
2024/04/08 08:40:08;;;;;;;1.48;0.98;;;;;;;22.23;51.35;99999.34;4474292;28;20031;-54
2024/04/08 08:42:21;;;;;;;1.95;1.10;;;;;;;22.23;50.94;99996.47;4492096;28;20789;-55
2024/04/08 08:44:32;;;;;;;1.20;0.98;;;;;;;22.23;50.77;99999.34;4491341;28;20129;-52
2024/04/08 08:46:43;;;;;;;1.20;1.10;;;;;;;22.21;51.70;100000.53;4492118;28;20034;-53
2024/04/08 08:48:59;;;;;;;1.27;1.13;;;;;;;22.22;51.83;99995.63;4492263;28;20046;-55
2024/04/08 08:51:11;;;;;;;1.50;0.95;;;;;;;22.22;51.22;100001.38;4492196;28;21389;-54
2024/04/08 08:53:22;;;;;;;1.58;1.10;;;;;;;22.21;51.52;100000.53;4490587;28;20940;-54
2024/04/08 08:55:32;;;;;;;2.33;1.00;;;;;;;22.22;51.62;99998.50;4491825;28;20034;-55
2024/04/08 08:57:43;;;;;;;1.33;1.08;;;;;;;22.22;51.65;99998.50;4491903;28;20034;-55
2024/04/08 08:59:55;;;;;;;2.15;1.17;;;;;;;22.25;52.03;99994.03;4492076;28;20038;-54
2024/04/08 09:02:08;;;;;;;1.27;1.00;;;;;;;22.23;52.15;99987.84;4491833;28;20030;-54
2024/04/08 09:04:19;;;;;;;2.42;1.13;;;;;;;22.21;51.56;99980.41;4491552;28;20034;-54
2024/04/08 09:06:30;;;;;;;1.58;1.13;;;;;;;22.23;50.71;99980.88;4490987;28;20057;-54
2024/04/08 09:08:41;;;;;;;1.42;1.15;;;;;;;22.25;50.77;99973.91;4491963;28;20038;-54
2024/04/08 09:10:51;;;;;;;1.85;1.10;;;;;;;22.25;50.42;99971.03;4491699;28;20042;-54
2024/04/08 09:13:02;;;;;;;2.10;1.17;;;;;;;22.26;51.15;99966.94;4491554;28;20062;-54
2024/04/08 09:15:13;;;;;;;2.65;1.10;;;;;;;22.26;50.52;99949.69;4491560;28;20042;-54
2024/04/08 09:17:23;;;;;;;1.48;1.10;;;;;;;22.26;51.27;99941.06;4490104;28;20035;-56
2024/04/08 09:19:35;;;;;;;2.55;1.20;;;;;;;22.26;51.10;99935.31;4491904;28;20050;-56
2024/04/08 09:21:45;;;;;;;2.45;1.40;;;;;;;22.27;50.79;99936.94;4491610;28;20042;-55
2024/04/08 09:24:06;;;;;;;1.85;1.20;;;;;;;22.28;50.87;99939.44;4491457;28;20042;-55
2024/04/08 09:26:17;;;;;;;2.35;1.38;;;;;;;22.29;51.48;99943.97;4490950;28;20051;-52
2024/04/08 09:28:28;;;;;;;1.90;1.15;;;;;;;22.29;51.64;99926.72;4491341;28;20096;-56
2024/04/08 09:30:39;;;;;;;3.25;1.50;;;;;;;22.31;51.03;99930.00;4491695;28;20042;-56
2024/04/08 09:32:51;;;;;;;1.70;1.20;;;;;;;22.32;50.62;99930.84;4491853;28;20038;-56
2024/04/08 09:35:01;;;;;;;1.90;1.15;;;;;;;22.31;50.40;99927.13;4491652;28;20022;-57
2024/04/08 09:37:15;;;;;;;1.83;1.20;;;;;;;22.33;50.32;99939.06;4473051;28;20034;-55
2024/04/08 09:39:26;;;;;;;2.03;1.23;;;;;;;22.34;50.95;99951.41;4491355;28;20121;-58
2024/04/08 09:41:37;;;;;;;2.10;1.20;;;;;;;22.34;50.25;99955.13;4490899;28;20105;-54
2024/04/08 09:43:48;;;;;;;2.20;1.20;;;;;;;22.34;50.92;99957.16;4491617;28;20941;-56
2024/04/08 09:46:00;;;;;;;2.47;1.20;;;;;;;22.34;50.29;99960.03;4491197;28;20046;-57
2024/04/08 09:48:12;;;;;;;2.53;1.35;;;;;;;22.35;50.78;99959.66;4472932;28;20046;-54
2024/04/08 09:50:23;;;;;;;3.30;1.30;;;;;;;22.36;51.21;99957.59;4491209;28;20073;-56
2024/04/08 09:52:34;;;;;;;1.75;1.25;;;;;;;22.36;51.15;99957.59;4490099;28;20066;-57
2024/04/08 09:54:44;;;;;;;2.33;1.27;;;;;;;22.36;50.89;99960.47;4491029;28;20069;-56
2024/04/08 09:56:58;;;;;;;2.55;1.45;;;;;;;22.37;51.40;99957.22;4491547;28;20046;-54
2024/04/08 09:59:17;;;;;;;2.55;1.40;;;;;;;22.37;51.51;99947.75;4490693;28;20608;-55
2024/04/08 10:01:28;;;;;;;1.90;1.33;;;;;;;22.37;51.16;99954.34;4490955;28;20030;-52
2024/04/08 10:03:47;;;;;;;1.45;1.27;;;;;;;22.38;51.44;99952.25;4472915;28;20042;-53
2024/04/08 10:05:58;;;;;;;2.38;1.60;;;;;;;22.39;51.44;99956.81;4490839;28;20652;-54
2024/04/08 10:08:10;;;;;;;1.60;1.30;;;;;;;22.40;51.44;99946.97;4482731;23;20046;-52
2024/04/08 10:10:21;;;;;;;2.85;1.90;;;;;;;22.40;51.46;99952.72;4492417;28;20042;-48